Terminal Aerodrome Forecast
Issued by NWS Charleston, WV

Current Version | Previous Version | Graphics & Text | Print | Product List | Glossary On
Versions: 1 2 3 4 5 6 7 8 9 10 11 12 13 14 15 16 17 18 19 20 21 22 23 24 25
000
FTUS41 KRLX 262200 AAA
TAFPKB
TAF AMD
KPKB 262232Z 2623/2718 21008KT P6SM SCT025 BKN050
      TEMPO 2623/2624 2SM TSRA BR BKN025CB
     FM270100 21005KT P6SM BKN080
     FM270700 22005KT 5SM TSRA BR BKN030CB
     FM271700 18008G14KT 2SM TSRA BR BKN015CB
      AMD NOT SKED=

USA.gov is the U.S. government's official web portal to all federal, state and local government web resources and services.